BXJ weather

Boralday Airport
Aima Ata, Almaty Region, Kazakhstan

Public forecast

Using degrees Celsius for public forecast. Weather courtesy of forecast.io.

METAR (pilot weather report)

Closest report is Almaty Airport, 6.8 nm (12.7 km) E. Retrieved 2019/03/24 15:00 UTC (2 minutes ago):

UAAA 241500Z 08003MPS 5000 -SHRA BR BKN050CB OVC100 07/05 Q1022 R88/2/0150 TEMPO TS

TAF (pilot weather forecast)

Closest forecast is Almaty Airport, 6.8 nm (12.7 km) E. Retrieved 2019/03/24 12:18 UTC (3 hours ago):

TAF TAF COR UAAA 241100Z 2412/2512 24005MPS 3100 -SHRA BR BKN011CB OVC100 TX12/2508Z TN03/2501Z TEMPO 2412/2416 28004MPS 1000 SHRA BKN005 OVC011CB BECMG 2416/2417 1000 BR TEMPO 2416/2503 16003MPS 0300 FG VV002 FM250400 04003MPS 3100 BR SCT030CB BKN100